createdAt,value
2023-05-02T00:00:03.348Z,9.7167
2023-05-02T00:01:07.374Z,13.8333
2023-05-02T00:02:11.439Z,18.2167
2023-05-02T00:03:15.408Z,13.7167
2023-05-02T00:04:19.383Z,7.8667
2023-05-02T00:05:23.550Z,6.1500
2023-05-02T00:06:27.504Z,7.8667
2023-05-02T00:07:31.419Z,11.8167
2023-05-02T00:08:35.330Z,16.4167
2023-05-02T00:09:39.240Z,12.7333
2023-05-02T00:10:43.140Z,7.9500
2023-05-02T00:11:47.039Z,6.9167
2023-05-02T00:12:50.938Z,8.8500
2023-05-02T00:13:54.824Z,12.6833
2023-05-02T00:14:59.490Z,16.4333
2023-05-02T00:16:03.380Z,10.9167
2023-05-02T00:17:07.338Z,4.4167
2023-05-02T00:18:11.252Z,3.5167
2023-05-02T00:19:15.150Z,5.1500
2023-05-02T00:20:19.131Z,9.2833
2023-05-02T00:21:23.034Z,14.4500
2023-05-02T00:22:26.921Z,11.7000
2023-05-02T00:23:30.814Z,5.4500
2023-05-02T00:24:34.700Z,4.5333
2023-05-02T00:25:38.596Z,6.7667
2023-05-02T00:26:42.475Z,10.7000
2023-05-02T00:27:46.378Z,16.0500
2023-05-02T00:28:50.272Z,14.5167
2023-05-02T00:29:50.732Z,7.1636
2023-05-02T00:30:54.647Z,4.4167
2023-05-02T00:31:58.556Z,6.1333
2023-05-02T00:33:02.493Z,9.5833
2023-05-02T00:34:06.358Z,15.0667
2023-05-02T00:35:10.257Z,17.0833
2023-05-02T00:36:14.152Z,10.7333
2023-05-02T00:37:18.060Z,7.5167
2023-05-02T00:38:21.934Z,8.1167
2023-05-02T00:39:25.822Z,11.0000
2023-05-02T00:40:29.810Z,15.7667
2023-05-02T00:41:33.692Z,17.6500
2023-05-02T00:42:37.606Z,13.0667
2023-05-02T00:43:41.510Z,11.4167
2023-05-02T00:44:45.407Z,12.6333
2023-05-02T00:45:49.325Z,15.3833
2023-05-02T00:46:53.386Z,18.8667
2023-05-02T00:47:57.385Z,15.1833
2023-05-02T00:49:01.319Z,5.3500
2023-05-02T00:50:05.272Z,2.4833
2023-05-02T00:51:09.165Z,2.8667
2023-05-02T00:52:13.047Z,4.9833
2023-05-02T00:53:16.964Z,10.4333
2023-05-02T00:54:20.873Z,14.6333
2023-05-02T00:55:24.791Z,11.1333
2023-05-02T00:56:28.692Z,10.4333
2023-05-02T00:57:32.601Z,11.9833
2023-05-02T00:58:36.512Z,14.8500
2023-05-02T00:59:40.444Z,19.0000
2023-05-02T01:00:44.330Z,18.1167
2023-05-02T01:01:48.286Z,8.3333
2023-05-02T01:02:52.319Z,3.1000
2023-05-02T01:03:56.350Z,3.2167
2023-05-02T01:05:00.254Z,5.4833
2023-05-02T01:06:04.254Z,10.6500
2023-05-02T01:07:08.102Z,16.3167
2023-05-02T01:08:12.127Z,13.9000
2023-05-02T01:09:16.002Z,12.6833
2023-05-02T01:10:19.899Z,13.9167
2023-05-02T01:11:23.812Z,16.3167
2023-05-02T01:12:27.708Z,19.9667
2023-05-02T01:13:31.626Z,20.6167
2023-05-02T01:14:35.520Z,11.4333
2023-05-02T01:15:39.453Z,4.5167
2023-05-02T01:16:43.408Z,3.6000
2023-05-02T01:17:47.338Z,5.5333
2023-05-02T01:18:51.219Z,10.2333
2023-05-02T01:19:55.107Z,15.6167
2023-05-02T01:20:59.001Z,11.9833
2023-05-02T01:22:02.958Z,6.4500
2023-05-02T01:23:07.206Z,6.0333
2023-05-02T01:24:11.103Z,8.4500
2023-05-02T01:25:15.010Z,12.6833
2023-05-02T01:26:18.913Z,17.8833
2023-05-02T01:27:22.831Z,15.0333
2023-05-02T01:28:26.747Z,9.1833
2023-05-02T01:29:30.658Z,7.6167
2023-05-02T01:30:34.568Z,9.2333
2023-05-02T01:31:38.593Z,13.0500
2023-05-02T01:32:42.783Z,17.7833
2023-05-02T01:33:46.667Z,14.4667
2023-05-02T01:34:50.565Z,6.3333
2023-05-02T01:35:54.525Z,3.7833
2023-05-02T01:36:58.416Z,5.5333
2023-05-02T01:38:02.333Z,9.2500
2023-05-02T01:39:06.212Z,15.0000
2023-05-02T01:40:10.133Z,16.8333
2023-05-02T01:41:14.023Z,10.8333
2023-05-02T01:42:17.942Z,8.3000
2023-05-02T01:43:21.856Z,9.3167
2023-05-02T01:44:25.729Z,12.4167
2023-05-02T01:45:29.622Z,17.2500
2023-05-02T01:46:33.577Z,18.2000
2023-05-02T01:47:37.512Z,10.5333
2023-05-02T01:48:41.416Z,6.2667
2023-05-02T01:49:45.316Z,6.3500
2023-05-02T01:50:49.239Z,9.2167
2023-05-02T01:51:53.162Z,14.1167
2023-05-02T01:52:57.093Z,17.2167
2023-05-02T01:54:00.968Z,10.8500
2023-05-02T01:55:04.866Z,6.3500
2023-05-02T01:56:08.748Z,6.4167
2023-05-02T01:57:12.650Z,9.0000
2023-05-02T01:58:16.771Z,13.6833
2023-05-02T01:59:20.649Z,17.5333
2023-05-02T02:00:24.783Z,11.8667
2023-05-02T02:01:28.699Z,6.8833
2023-05-02T02:02:32.586Z,6.3667
2023-05-02T02:03:36.578Z,8.6667
2023-05-02T02:04:40.628Z,13.0833
2023-05-02T02:05:41.605Z,17.2000
2023-05-02T02:06:45.624Z,13.0000
2023-05-02T02:07:49.896Z,8.8000
2023-05-02T02:08:53.782Z,8.1500
2023-05-02T02:09:57.805Z,10.2167
2023-05-02T02:11:01.795Z,14.1167
2023-05-02T02:12:05.712Z,16.9500
2023-05-02T02:13:09.624Z,10.4667
2023-05-02T02:14:13.536Z,4.8667
2023-05-02T02:15:17.444Z,4.1667
2023-05-02T02:16:21.416Z,6.2667
2023-05-02T02:17:25.676Z,10.6833
2023-05-02T02:18:29.851Z,15.0500
2023-05-02T02:19:33.746Z,10.2167
2023-05-02T02:20:37.644Z,4.5167
2023-05-02T02:21:41.519Z,4.0833
2023-05-02T02:22:45.646Z,6.3333
2023-05-02T02:23:49.563Z,10.6000
2023-05-02T02:24:54.405Z,15.7667
2023-05-02T02:25:58.495Z,12.9667
2023-05-02T02:27:02.388Z,9.2667
2023-05-02T02:28:06.280Z,9.0667
2023-05-02T02:29:10.184Z,11.1167
2023-05-02T02:30:14.119Z,14.8500
2023-05-02T02:31:18.093Z,17.6833
2023-05-02T02:32:21.956Z,10.9000
2023-05-02T02:33:25.840Z,4.1500
2023-05-02T02:34:29.726Z,3.3167
2023-05-02T02:35:33.615Z,4.9667
2023-05-02T02:36:37.521Z,9.2167
2023-05-02T02:37:41.404Z,14.6167
2023-05-02T02:38:45.291Z,12.0333
2023-05-02T02:39:49.174Z,6.9333
2023-05-02T02:40:53.051Z,6.4000
2023-05-02T02:41:56.937Z,8.4500
2023-05-02T02:43:00.848Z,12.4000
2023-05-02T02:44:04.726Z,17.0333
2023-05-02T02:45:09.570Z,13.6000
2023-05-02T02:46:13.489Z,8.8000
2023-05-02T02:47:17.350Z,7.5667
2023-05-02T02:48:21.233Z,9.4167
2023-05-02T02:49:25.147Z,13.1500
2023-05-02T02:50:29.025Z,16.5833
2023-05-02T02:51:32.961Z,10.7500
2023-05-02T02:52:37.095Z,4.0333
2023-05-02T02:53:41.001Z,3.2667
2023-05-02T02:54:44.928Z,4.8833
2023-05-02T02:55:49.593Z,9.0500
2023-05-02T02:56:53.485Z,14.6167
2023-05-02T02:57:57.378Z,12.2500
2023-05-02T02:59:01.272Z,5.2667
2023-05-02T03:00:05.390Z,3.8000
2023-05-02T03:01:09.300Z,6.1167
2023-05-02T03:02:13.221Z,9.9000
2023-05-02T03:03:17.169Z,15.7000
2023-05-02T03:04:21.155Z,16.4833
2023-05-02T03:05:25.667Z,10.2333
2023-05-02T03:06:29.627Z,7.9833
2023-05-02T03:07:33.626Z,9.2000
2023-05-02T03:08:37.544Z,12.4833
2023-05-02T03:09:41.454Z,17.3833
2023-05-02T03:10:45.354Z,17.5000
2023-05-02T03:11:49.267Z,9.3833
2023-05-02T03:12:53.188Z,4.9833
2023-05-02T03:13:57.097Z,5.7167
2023-05-02T03:15:01.259Z,8.7667
2023-05-02T03:16:05.181Z,14.0333
2023-05-02T03:17:09.172Z,17.8000
2023-05-02T03:18:13.083Z,12.0667
2023-05-02T03:19:17.279Z,7.7000
2023-05-02T03:20:21.167Z,7.6333
2023-05-02T03:21:25.069Z,10.1333
2023-05-02T03:22:28.954Z,14.7167
2023-05-02T03:23:32.835Z,18.5167
2023-05-02T03:24:36.710Z,14.3667
2023-05-02T03:25:40.614Z,12.3000
2023-05-02T03:26:44.514Z,13.3500
2023-05-02T03:27:48.405Z,15.7833
2023-05-02T03:28:52.396Z,19.2333
2023-05-02T03:29:56.300Z,18.0000
2023-05-02T03:31:00.326Z,7.7667
2023-05-02T03:32:04.407Z,2.5833
2023-05-02T03:33:08.417Z,2.5000
2023-05-02T03:34:12.305Z,4.1167
2023-05-02T03:35:16.196Z,8.9167
2023-05-02T03:36:20.090Z,15.0500
2023-05-02T03:37:24.003Z,12.6333
2023-05-02T03:38:27.913Z,7.9167
2023-05-02T03:39:31.824Z,7.9667
2023-05-02T03:40:35.713Z,10.2500
2023-05-02T03:41:39.595Z,14.4000
2023-05-02T03:42:43.493Z,19.2333
2023-05-02T03:43:47.376Z,15.8000
2023-05-02T03:44:51.276Z,10.2833
2023-05-02T03:45:55.154Z,8.4000
2023-05-02T03:46:59.125Z,10.0000
2023-05-02T03:48:03.135Z,13.8333
2023-05-02T03:49:07.003Z,18.0833
2023-05-02T03:50:07.411Z,13.7455
2023-05-02T03:51:11.308Z,5.4667
2023-05-02T03:52:15.198Z,3.2500
2023-05-02T03:53:19.094Z,4.7500
2023-05-02T03:54:22.984Z,8.3833
2023-05-02T03:55:26.878Z,14.3000
2023-05-02T03:56:30.749Z,16.7167
2023-05-02T03:57:34.690Z,10.3833
2023-05-02T03:58:38.546Z,7.0500
2023-05-02T03:59:42.419Z,8.1833
2023-05-02T04:00:46.316Z,11.1500
2023-05-02T04:01:50.318Z,16.2000
2023-05-02T04:02:54.548Z,19.2333
2023-05-02T04:03:58.512Z,12.4667
2023-05-02T04:05:02.391Z,7.2667
2023-05-02T04:06:06.285Z,6.8833
2023-05-02T04:07:10.170Z,9.4167
2023-05-02T04:08:14.044Z,14.1333
2023-05-02T04:09:17.929Z,18.7667
2023-05-02T04:10:21.824Z,13.7000
2023-05-02T04:11:25.790Z,6.5667
2023-05-02T04:12:29.632Z,5.0167
2023-05-02T04:13:33.523Z,7.3667
2023-05-02T04:14:37.442Z,11.5667
2023-05-02T04:15:41.351Z,17.5333
2023-05-02T04:16:45.302Z,17.5667
2023-05-02T04:17:49.264Z,13.2000
2023-05-02T04:18:53.146Z,12.1333
2023-05-02T04:19:57.037Z,13.7667
2023-05-02T04:21:00.941Z,17.0667
2023-05-02T04:22:04.869Z,20.7333
2023-05-02T04:23:04.965Z,16.0545
2023-05-02T04:24:08.872Z,7.9833
2023-05-02T04:25:12.780Z,4.6833
2023-05-02T04:26:16.689Z,5.3833
2023-05-02T04:27:20.586Z,8.9000
2023-05-02T04:28:24.531Z,14.3667
2023-05-02T04:29:28.421Z,14.2167
2023-05-02T04:30:32.325Z,7.9667
2023-05-02T04:31:36.276Z,5.9333
2023-05-02T04:32:40.277Z,7.3667
2023-05-02T04:33:44.185Z,10.7167
2023-05-02T04:34:48.051Z,15.6500
2023-05-02T04:35:52.213Z,14.8833
2023-05-02T04:36:56.117Z,6.6500
2023-05-02T04:38:00.256Z,3.4667
2023-05-02T04:39:04.173Z,4.4000
2023-05-02T04:40:08.109Z,7.5500
2023-05-02T04:41:12.007Z,13.0500
2023-05-02T04:42:15.914Z,16.2500
2023-05-02T04:43:19.822Z,9.9333
2023-05-02T04:44:23.735Z,5.5833
2023-05-02T04:45:27.873Z,6.1833
2023-05-02T04:46:31.886Z,9.0667
2023-05-02T04:47:35.824Z,14.0000
2023-05-02T04:48:39.723Z,18.2667
2023-05-02T04:49:43.621Z,13.4667
2023-05-02T04:50:47.509Z,9.7167
2023-05-02T04:51:51.407Z,9.3333
2023-05-02T04:52:55.317Z,11.6167
2023-05-02T04:53:59.235Z,15.6833
2023-05-02T04:55:03.133Z,18.1333
2023-05-02T04:56:07.013Z,11.7667
2023-05-02T04:57:11.040Z,7.5333
2023-05-02T04:58:14.964Z,6.8500
2023-05-02T04:59:18.866Z,9.2667
2023-05-02T05:00:19.268Z,13.4182
2023-05-02T05:01:23.180Z,15.5667
2023-05-02T05:02:27.302Z,8.3000
2023-05-02T05:03:31.338Z,3.3000
2023-05-02T05:04:35.232Z,3.2167
2023-05-02T05:05:39.254Z,5.2167
2023-05-02T05:06:43.259Z,9.9333
2023-05-02T05:07:47.125Z,15.0500
2023-05-02T05:08:51.011Z,10.8667
2023-05-02T05:09:54.940Z,4.7167
2023-05-02T05:10:59.125Z,4.2500
2023-05-02T05:12:03.037Z,6.7333
2023-05-02T05:13:07.183Z,11.0167
2023-05-02T05:14:11.111Z,16.7833
2023-05-02T05:15:15.008Z,15.2667
2023-05-02T05:16:18.981Z,8.0667
2023-05-02T05:17:22.920Z,5.7000
2023-05-02T05:18:26.793Z,7.4667
2023-05-02T05:19:30.681Z,11.0833
2023-05-02T05:20:34.562Z,16.6167
2023-05-02T05:23:09.552Z,33.3000
2023-05-02T05:24:11.308Z,25.8462
2023-05-02T05:25:13.017Z,16.6615
2023-05-02T05:26:14.720Z,13.7538
2023-05-02T05:27:16.481Z,18.9231
2023-05-02T05:28:18.187Z,26.0923
2023-05-02T05:29:19.900Z,36.4000
2023-05-02T05:30:21.627Z,47.7846
2023-05-02T05:31:23.348Z,50.6462
2023-05-02T05:32:25.109Z,49.2769
2023-05-02T05:33:26.907Z,49.7538
2023-05-02T05:34:28.530Z,51.3077
2023-05-02T05:35:30.248Z,54.0308
2023-05-02T05:36:31.937Z,55.6308
2023-05-02T05:37:33.653Z,42.9231
2023-05-02T05:38:35.377Z,28.6615
2023-05-02T05:39:37.111Z,16.6462
2023-05-02T05:40:38.820Z,13.0154
2023-05-02T05:41:40.542Z,15.5692
2023-05-02T05:42:42.261Z,20.2923
2023-05-02T05:43:43.970Z,18.3385
2023-05-02T05:44:45.736Z,10.1538
2023-05-02T05:45:47.440Z,5.8769
2023-05-02T05:46:50.024Z,5.6000
2023-05-02T05:47:50.921Z,8.8462
2023-05-02T05:48:52.603Z,13.9538
2023-05-02T05:49:54.321Z,14.4769
2023-05-02T05:50:56.031Z,6.0769
2023-05-02T05:51:57.762Z,2.8769
2023-05-02T05:52:59.482Z,2.8462
2023-05-02T05:54:01.191Z,4.3231
2023-05-02T05:55:02.885Z,9.1538
2023-05-02T05:56:04.609Z,13.4000
2023-05-02T05:57:06.339Z,7.5692
2023-05-02T05:58:08.060Z,2.8923
2023-05-02T05:59:09.784Z,2.6462
2023-05-02T06:00:11.503Z,3.8154
2023-05-02T06:01:13.215Z,7.7077
2023-05-02T06:02:15.001Z,13.6615
2023-05-02T06:03:16.705Z,12.7077
2023-05-02T06:04:18.367Z,4.8923
2023-05-02T06:05:20.105Z,2.6923
2023-05-02T06:06:21.894Z,3.4308
2023-05-02T06:07:23.533Z,6.1846
2023-05-02T06:08:25.264Z,11.7692
2023-05-02T06:09:26.979Z,17.0462
2023-05-02T06:10:28.787Z,12.3077
2023-05-02T06:11:30.415Z,5.2154
2023-05-02T06:12:32.139Z,3.8923
2023-05-02T06:13:33.854Z,5.9692
2023-05-02T06:14:35.586Z,10.0923
2023-05-02T06:15:37.365Z,16.2000
2023-05-02T06:16:39.128Z,18.6154
2023-05-02T06:17:40.747Z,11.5538
2023-05-02T06:18:42.428Z,6.7538
2023-05-02T06:19:44.151Z,6.6308
2023-05-02T06:20:45.892Z,9.1538
2023-05-02T06:21:47.619Z,13.9538
2023-05-02T06:22:49.338Z,19.4308
2023-05-02T06:23:51.053Z,16.1538
2023-05-02T06:24:52.768Z,10.1846
2023-05-02T06:25:54.494Z,7.9385
2023-05-02T06:26:56.231Z,9.1231
2023-05-02T06:27:57.939Z,12.7231
2023-05-02T06:28:59.664Z,17.7077
2023-05-02T06:30:01.623Z,16.8308
2023-05-02T06:31:03.190Z,11.3385
2023-05-02T06:32:04.874Z,6.2462
2023-05-02T06:33:06.584Z,5.9538
2023-05-02T06:34:08.246Z,8.7385
2023-05-02T06:35:09.992Z,12.9077
2023-05-02T06:36:11.661Z,11.4769
2023-05-02T06:37:13.391Z,3.7077
2023-05-02T06:38:15.106Z,1.9077
2023-05-02T06:39:16.827Z,2.0769
2023-05-02T06:40:18.537Z,3.1077
2023-05-02T06:41:20.299Z,7.0769
2023-05-02T06:42:21.986Z,13.2769
2023-05-02T06:43:23.710Z,10.8462
2023-05-02T06:44:25.469Z,4.2308
2023-05-02T06:45:27.165Z,3.0000
2023-05-02T06:46:28.895Z,4.4923
2023-05-02T06:47:30.701Z,8.0615
2023-05-02T06:48:32.319Z,13.8154
2023-05-02T06:49:34.032Z,17.9077
2023-05-02T06:50:35.775Z,12.5538
2023-05-02T06:51:37.503Z,8.7846
2023-05-02T06:52:39.205Z,8.4462
2023-05-02T06:53:40.970Z,10.7385
2023-05-02T06:54:42.659Z,14.8923
2023-05-02T06:55:44.379Z,18.9385
2023-05-02T06:56:46.111Z,13.6462
2023-05-02T06:57:47.822Z,6.7846
2023-05-02T06:58:49.556Z,4.5846
2023-05-02T06:59:51.308Z,5.7385
2023-05-02T07:00:53.005Z,9.4769
2023-05-02T07:01:54.717Z,14.8308
2023-05-02T07:02:56.487Z,14.6154
2023-05-02T07:03:58.196Z,8.0462
2023-05-02T07:04:59.883Z,5.2769
2023-05-02T07:06:01.684Z,5.9538
2023-05-02T07:07:03.333Z,8.9385
2023-05-02T07:08:05.053Z,13.7385
2023-05-02T07:09:06.784Z,15.6154
2023-05-02T07:10:08.505Z,9.2000
2023-05-02T07:11:10.241Z,5.4615
2023-05-02T07:12:11.935Z,5.2154
2023-05-02T07:13:13.653Z,7.6615
2023-05-02T07:14:15.378Z,12.0462
2023-05-02T07:15:17.065Z,15.2000
2023-05-02T07:16:18.846Z,8.9077
2023-05-02T07:17:20.540Z,3.6923
2023-05-02T07:18:22.236Z,3.1846
2023-05-02T07:19:23.954Z,4.5231
2023-05-02T07:20:25.743Z,8.4615
2023-05-02T07:21:27.419Z,11.6615
2023-05-02T07:22:29.115Z,5.1231
2023-05-02T07:23:30.847Z,2.3385
2023-05-02T07:24:32.568Z,1.6154
2023-05-02T07:25:34.279Z,1.3385
2023-05-02T07:26:35.996Z,1.2000
2023-05-02T07:27:37.742Z,1.2000
2023-05-02T07:28:39.453Z,1.2154
2023-05-02T07:29:41.183Z,1.4000
2023-05-02T07:30:42.891Z,1.5692
2023-05-02T07:31:44.668Z,1.7077
2023-05-02T07:32:46.393Z,1.8000
2023-05-02T07:33:48.065Z,1.8000
2023-05-02T07:34:49.758Z,1.8000
2023-05-02T07:35:51.485Z,1.8000
2023-05-02T07:36:53.203Z,1.8000
2023-05-02T07:37:54.997Z,1.8000
2023-05-02T07:38:57.448Z,1.8000
2023-05-02T07:40:01.598Z,1.8000
2023-05-02T07:41:05.779Z,1.8000
2023-05-02T07:42:09.674Z,1.8000
2023-05-02T07:43:13.563Z,1.7000
2023-05-02T07:44:17.438Z,1.6000
2023-05-02T07:45:21.492Z,1.6000
2023-05-02T07:46:25.554Z,1.6000
2023-05-02T07:47:33.434Z,1.6000
2023-05-02T07:48:32.029Z,1.6000
2023-05-02T07:49:35.907Z,1.5000
2023-05-02T07:50:39.823Z,1.4000
2023-05-02T07:51:44.581Z,1.4000
2023-05-02T07:52:48.875Z,1.4000
2023-05-02T07:53:52.278Z,1.4000
2023-05-02T07:54:56.181Z,1.4000
2023-05-02T07:56:00.134Z,1.4000
2023-05-02T07:57:04.148Z,1.4000
2023-05-02T07:58:08.041Z,1.4000
2023-05-02T07:59:12.176Z,1.4000
2023-05-02T08:00:16.135Z,1.4000
2023-05-02T08:01:20.027Z,1.2667
2023-05-02T08:02:25.852Z,1.2167
2023-05-02T08:03:24.800Z,1.2000
2023-05-02T08:04:30.610Z,1.2000
2023-05-02T08:05:29.297Z,1.2000
2023-05-02T08:06:33.252Z,1.2000
2023-05-02T08:07:37.390Z,1.2000
2023-05-02T08:08:41.330Z,1.2000
2023-05-02T08:09:45.243Z,1.2000
2023-05-02T08:10:49.281Z,1.2000
2023-05-02T08:11:53.178Z,1.2000
2023-05-02T08:12:59.384Z,1.2000
2023-05-02T08:13:58.490Z,1.2000
2023-05-02T08:14:58.916Z,1.1091
2023-05-02T08:16:02.914Z,0.9500
2023-05-02T08:17:06.790Z,0.8000
2023-05-02T08:18:10.804Z,0.9500
2023-05-02T08:19:14.726Z,1.4667
2023-05-02T08:20:18.596Z,2.2833
2023-05-02T08:21:22.517Z,6.5833
2023-05-02T08:22:26.390Z,15.4000
2023-05-02T08:23:30.308Z,20.2000
2023-05-02T08:24:34.210Z,22.9333
2023-05-02T08:25:38.156Z,26.3167
2023-05-02T08:26:42.073Z,30.2833
2023-05-02T08:27:45.987Z,35.2000
2023-05-02T08:28:49.890Z,37.2333
2023-05-02T08:29:53.839Z,24.9833
2023-05-02T08:30:57.724Z,11.6833
2023-05-02T08:32:01.728Z,3.9667
2023-05-02T08:33:05.706Z,2.1167
2023-05-02T08:34:09.614Z,2.9500
2023-05-02T08:35:13.493Z,7.2000
2023-05-02T08:36:17.378Z,8.1167
2023-05-02T08:37:21.301Z,2.9000
2023-05-02T08:38:25.186Z,1.9667
2023-05-02T08:39:29.082Z,1.9500
2023-05-02T08:40:41.571Z,2.7500
2023-05-02T08:41:37.461Z,6.8909
2023-05-02T08:42:41.375Z,9.2167
2023-05-02T08:43:45.406Z,3.2167
2023-05-02T08:44:49.298Z,1.7667
2023-05-02T08:45:53.202Z,1.6333
2023-05-02T08:46:57.160Z,2.0000
2023-05-02T08:48:01.146Z,3.8333
2023-05-02T08:49:05.015Z,8.6667
2023-05-02T08:50:09.188Z,4.5667
2023-05-02T08:51:13.087Z,1.9833
2023-05-02T08:52:16.995Z,1.6500
2023-05-02T08:53:20.927Z,1.8500
2023-05-02T08:54:25.025Z,2.8833
2023-05-02T08:55:28.946Z,7.6167
2023-05-02T08:56:32.868Z,6.7833
2023-05-02T08:57:37.097Z,2.8833
2023-05-02T08:58:41.046Z,2.4000
2023-05-02T08:59:44.910Z,2.8167
2023-05-02T09:00:48.831Z,5.3833
2023-05-02T09:01:52.723Z,11.0167
2023-05-02T09:02:56.636Z,8.8833
2023-05-02T09:04:00.609Z,2.7167
2023-05-02T09:05:04.514Z,1.9000
2023-05-02T09:06:08.432Z,2.0333
2023-05-02T09:07:12.328Z,2.9667
2023-05-02T09:08:16.213Z,7.4833
2023-05-02T09:09:20.127Z,9.4833
2023-05-02T09:10:24.039Z,3.5500
2023-05-02T09:11:27.991Z,2.2500
2023-05-02T09:12:32.087Z,2.4167
2023-05-02T09:13:35.996Z,3.6667
2023-05-02T09:14:39.875Z,8.8000
2023-05-02T09:15:43.781Z,12.3167
2023-05-02T09:16:47.793Z,5.5667
2023-05-02T09:17:51.982Z,2.4333
2023-05-02T09:18:55.918Z,2.3333
2023-05-02T09:19:59.936Z,3.2000
2023-05-02T09:21:03.849Z,7.3500
2023-05-02T09:22:07.768Z,13.0000
2023-05-02T09:23:11.682Z,8.4500
2023-05-02T09:24:15.614Z,3.3500
2023-05-02T09:25:19.753Z,2.8000
2023-05-02T09:26:23.675Z,3.7833
2023-05-02T09:27:27.532Z,7.9833
2023-05-02T09:28:31.430Z,14.1167
2023-05-02T09:29:35.349Z,11.4333
2023-05-02T09:30:39.296Z,4.4000
2023-05-02T09:31:55.616Z,2.9333
2023-05-02T09:32:47.748Z,3.5455
2023-05-02T09:33:51.640Z,6.9500
2023-05-02T09:34:55.552Z,13.2000
2023-05-02T09:35:59.438Z,13.0167
2023-05-02T09:37:03.363Z,4.4500
2023-05-02T09:38:07.231Z,2.2833
2023-05-02T09:39:11.132Z,2.4833
2023-05-02T09:40:15.065Z,4.0833
2023-05-02T09:41:18.945Z,9.8500
2023-05-02T09:42:22.858Z,15.1000
2023-05-02T09:43:26.755Z,10.2500
2023-05-02T09:44:30.752Z,6.3167
2023-05-02T09:45:35.362Z,5.9667
2023-05-02T09:46:39.404Z,8.6333
2023-05-02T09:47:43.304Z,13.7667
2023-05-02T09:48:47.162Z,17.9000
2023-05-02T09:49:51.069Z,11.0167
2023-05-02T09:50:54.989Z,3.6167
2023-05-02T09:51:58.890Z,2.5833
2023-05-02T09:53:02.928Z,3.2333
2023-05-02T09:54:06.925Z,6.7167
2023-05-02T09:55:10.789Z,13.3833
2023-05-02T09:56:14.710Z,13.6333
2023-05-02T09:57:18.643Z,7.3000
2023-05-02T09:58:22.535Z,4.9333
2023-05-02T09:59:26.425Z,5.9500
2023-05-02T10:00:30.347Z,9.6500
2023-05-02T10:01:34.269Z,15.4500
2023-05-02T10:02:38.258Z,16.0500
2023-05-02T10:03:42.187Z,7.7167
2023-05-02T10:04:46.144Z,3.5667
2023-05-02T10:05:50.071Z,3.3833
2023-05-02T10:06:53.978Z,5.6000
2023-05-02T10:07:57.893Z,11.1333
2023-05-02T10:09:01.817Z,15.3833
2023-05-02T10:10:05.733Z,9.7167
2023-05-02T10:11:09.633Z,5.5167
2023-05-02T10:12:13.564Z,4.9333
2023-05-02T10:13:17.475Z,7.5000
2023-05-02T10:14:21.491Z,12.5500
2023-05-02T10:15:25.374Z,16.6333
2023-05-02T10:16:29.290Z,10.6667
2023-05-02T10:17:33.550Z,5.5667
2023-05-02T10:18:37.458Z,4.0167
2023-05-02T10:19:41.370Z,5.9167
2023-05-02T10:20:45.257Z,10.5833
2023-05-02T10:21:49.178Z,14.6500
2023-05-02T10:22:53.100Z,9.4167
2023-05-02T10:23:56.993Z,5.4000
2023-05-02T10:25:01.201Z,4.4500
2023-05-02T10:26:05.365Z,6.8500
2023-05-02T10:27:09.295Z,11.5500
2023-05-02T10:28:13.194Z,14.1167
2023-05-02T10:29:17.145Z,6.5667
2023-05-02T10:30:21.039Z,2.6000
2023-05-02T10:31:24.960Z,2.3500
2023-05-02T10:32:29.219Z,3.1833
2023-05-02T10:33:33.125Z,6.9833
2023-05-02T10:34:36.988Z,12.2333
2023-05-02T10:35:40.959Z,7.7167
2023-05-02T10:36:44.826Z,2.9000
2023-05-02T10:37:48.896Z,2.5667
2023-05-02T10:38:52.792Z,3.7667
2023-05-02T10:39:56.693Z,7.7833
2023-05-02T10:41:00.576Z,14.1333
2023-05-02T10:42:04.488Z,13.2333
2023-05-02T10:43:08.414Z,8.0500
2023-05-02T10:44:12.323Z,6.4500
2023-05-02T10:45:16.234Z,7.9667
2023-05-02T10:46:20.189Z,11.8833
2023-05-02T10:47:24.152Z,17.2167
2023-05-02T10:48:28.104Z,14.3333
2023-05-02T10:49:32.029Z,5.4167
2023-05-02T10:50:36.138Z,2.8000
2023-05-02T10:51:40.044Z,3.2333
2023-05-02T10:52:43.951Z,5.7667
2023-05-02T10:53:47.893Z,11.7500
2023-05-02T10:54:51.810Z,15.1833
2023-05-02T10:55:55.717Z,9.1833
2023-05-02T10:56:59.625Z,5.4000
2023-05-02T10:58:03.529Z,5.8000
2023-05-02T10:59:07.435Z,8.6500
2023-05-02T11:00:07.632Z,13.6727
2023-05-02T11:01:11.587Z,17.8500
2023-05-02T11:02:15.708Z,12.0500
2023-05-02T11:03:19.642Z,6.5833
2023-05-02T11:04:23.532Z,5.0833
2023-05-02T11:05:27.399Z,7.1167
2023-05-02T11:06:31.323Z,11.6833
2023-05-02T11:07:35.234Z,16.7167
2023-05-02T11:08:39.167Z,12.1000
2023-05-02T11:09:43.056Z,6.3000
2023-05-02T11:10:46.986Z,4.6500
2023-05-02T11:11:50.899Z,6.2833
2023-05-02T11:12:54.797Z,10.6333
2023-05-02T11:13:58.698Z,15.9333
2023-05-02T11:15:02.790Z,12.0333
2023-05-02T11:16:06.920Z,4.9333
2023-05-02T11:17:10.786Z,3.3333
2023-05-02T11:18:14.811Z,4.2667
2023-05-02T11:19:18.678Z,7.9833
2023-05-02T11:20:22.549Z,13.9167
2023-05-02T11:21:26.442Z,13.4333
2023-05-02T11:22:30.350Z,6.1167
2023-05-02T11:23:34.219Z,3.6000
2023-05-02T11:24:38.142Z,4.4167
2023-05-02T11:25:42.098Z,7.7000
2023-05-02T11:26:45.978Z,13.4833
2023-05-02T11:27:49.917Z,15.8833
2023-05-02T11:28:53.809Z,9.6167
2023-05-02T11:29:57.723Z,6.1333
2023-05-02T11:31:01.614Z,6.1500
2023-05-02T11:32:05.554Z,9.0500
2023-05-02T11:33:09.470Z,14.2000
2023-05-02T11:34:13.333Z,16.5000
2023-05-02T11:35:17.228Z,8.9833
2023-05-02T11:36:21.147Z,3.8667
2023-05-02T11:37:25.049Z,3.4667
2023-05-02T11:38:28.992Z,5.3667
2023-05-02T11:39:32.890Z,10.2500
2023-05-02T11:40:36.799Z,15.3333
2023-05-02T11:41:40.724Z,10.6500
2023-05-02T11:42:44.632Z,4.9667
2023-05-02T11:43:48.542Z,4.0833
2023-05-02T11:44:52.461Z,5.9500
2023-05-02T11:45:56.463Z,10.4000
2023-05-02T11:47:00.385Z,16.0667
2023-05-02T11:48:04.349Z,13.1667
2023-05-02T11:49:09.334Z,6.8667
2023-05-02T11:50:08.754Z,4.8182
2023-05-02T11:51:12.680Z,5.9667
2023-05-02T11:52:16.607Z,9.7500
2023-05-02T11:53:20.512Z,15.3000
2023-05-02T11:54:24.434Z,14.2833
2023-05-02T11:55:28.580Z,6.9000
2023-05-02T11:56:32.467Z,3.9833
2023-05-02T11:57:36.437Z,4.5333
2023-05-02T11:58:40.347Z,7.7833
2023-05-02T11:59:44.259Z,13.3833
2023-05-02T12:00:48.179Z,14.8333
2023-05-02T12:01:52.086Z,7.7667
2023-05-02T12:02:56.186Z,4.2167
2023-05-02T12:04:00.140Z,4.4333
2023-05-02T12:05:04.331Z,7.2000
2023-05-02T12:06:08.516Z,12.5333
2023-05-02T12:07:12.523Z,15.5167
2023-05-02T12:08:16.397Z,9.2833
2023-05-02T12:09:20.299Z,5.2500
2023-05-02T12:10:24.190Z,4.9000
2023-05-02T12:11:28.060Z,7.4333
2023-05-02T12:12:31.975Z,12.3333
2023-05-02T12:13:35.896Z,15.6333
2023-05-02T12:14:39.802Z,8.9500
2023-05-02T12:15:43.737Z,3.6500
2023-05-02T12:16:47.833Z,3.2000
2023-05-02T12:17:51.834Z,4.7333
2023-05-02T12:18:55.715Z,9.3333
2023-05-02T12:19:59.876Z,14.8167
2023-05-02T12:21:03.768Z,11.0500
2023-05-02T12:22:07.673Z,4.4167
2023-05-02T12:23:11.577Z,3.2333
2023-05-02T12:24:15.484Z,4.6167
2023-05-02T12:25:19.384Z,8.5667
2023-05-02T12:26:23.317Z,14.7167
2023-05-02T12:27:27.238Z,15.4333
2023-05-02T12:28:31.145Z,8.5000
2023-05-02T12:29:35.050Z,5.2167
2023-05-02T12:30:38.969Z,5.8500
2023-05-02T12:31:42.877Z,9.0333
2023-05-02T12:32:46.761Z,14.4333
2023-05-02T12:33:50.762Z,17.1333
2023-05-02T12:34:54.903Z,12.0167
2023-05-02T12:35:58.811Z,12.6833
2023-05-02T12:37:02.747Z,14.3667
2023-05-02T12:38:06.705Z,17.6167
2023-05-02T12:39:10.600Z,21.8333
2023-05-02T12:40:14.666Z,17.5667
2023-05-02T12:41:18.570Z,6.3833
2023-05-02T12:42:22.460Z,2.4333
2023-05-02T12:43:26.583Z,2.3500
2023-05-02T12:44:30.436Z,3.3333
2023-05-02T12:45:34.358Z,7.8333
2023-05-02T12:46:38.253Z,12.8167
2023-05-02T12:47:42.199Z,8.4333
2023-05-02T12:48:46.838Z,4.9000
2023-05-02T12:49:50.733Z,5.6833
2023-05-02T12:50:54.601Z,8.3000
2023-05-02T12:51:58.580Z,13.1333
2023-05-02T12:53:02.456Z,17.4333
2023-05-02T12:54:06.348Z,11.5667
2023-05-02T12:55:10.248Z,5.0000
2023-05-02T12:56:14.272Z,3.7667
2023-05-02T12:57:18.144Z,5.3000
2023-05-02T12:58:22.028Z,9.6167
2023-05-02T12:59:25.902Z,15.3833
2023-05-02T13:00:29.783Z,13.3167
2023-05-02T13:01:33.783Z,7.2167
2023-05-02T13:02:37.863Z,5.1833